sensor_id;sensor_type;location;lat;lon;timestamp;temperature;humidity
20973;DHT22;10645;52.370;13.314;2022-12-18T00:00:45;-5.20;99.90
20973;DHT22;10645;52.370;13.314;2022-12-18T00:03:14;-5.20;99.90
20973;DHT22;10645;52.370;13.314;2022-12-18T00:05:50;-5.20;99.90
20973;DHT22;10645;52.370;13.314;2022-12-18T00:08:17;-5.20;99.90
20973;DHT22;10645;52.370;13.314;2022-12-18T00:10:44;-5.30;99.90
20973;DHT22;10645;52.370;13.314;2022-12-18T00:13:11;-5.30;99.90
20973;DHT22;10645;52.370;13.314;2022-12-18T00:15:38;-5.30;99.90
20973;DHT22;10645;52.370;13.314;2022-12-18T00:18:05;-5.30;99.90
20973;DHT22;10645;52.370;13.314;2022-12-18T00:20:38;-5.30;99.90
20973;DHT22;10645;52.370;13.314;2022-12-18T00:23:05;-5.30;99.90
20973;DHT22;10645;52.370;13.314;2022-12-18T00:25:35;-5.30;99.90
20973;DHT22;10645;52.370;13.314;2022-12-18T00:28:03;-5.40;99.90
20973;DHT22;10645;52.370;13.314;2022-12-18T00:30:30;-5.40;99.90
20973;DHT22;10645;52.370;13.314;2022-12-18T00:32:56;-5.40;99.90
20973;DHT22;10645;52.370;13.314;2022-12-18T00:35:25;-5.40;99.90
20973;DHT22;10645;52.370;13.314;2022-12-18T00:37:52;-5.40;99.90
20973;DHT22;10645;52.370;13.314;2022-12-18T00:40:18;-5.40;99.90
20973;DHT22;10645;52.370;13.314;2022-12-18T00:42:44;-5.40;99.90
20973;DHT22;10645;52.370;13.314;2022-12-18T00:45:30;-5.40;99.90
20973;DHT22;10645;52.370;13.314;2022-12-18T00:47:56;-5.40;99.90
20973;DHT22;10645;52.370;13.314;2022-12-18T00:50:24;-5.40;99.90
20973;DHT22;10645;52.370;13.314;2022-12-18T00:52:50;-5.50;99.90
20973;DHT22;10645;52.370;13.314;2022-12-18T00:55:17;-5.50;99.90
20973;DHT22;10645;52.370;13.314;2022-12-18T00:57:43;-5.50;99.90
20973;DHT22;10645;52.370;13.314;2022-12-18T01:00:14;-5.60;99.90
20973;DHT22;10645;52.370;13.314;2022-12-18T01:02:41;-5.60;99.90
20973;DHT22;10645;52.370;13.314;2022-12-18T01:05:08;-5.60;99.90
20973;DHT22;10645;52.370;13.314;2022-12-18T01:07:34;-5.60;99.90
20973;DHT22;10645;52.370;13.314;2022-12-18T01:10:04;-5.60;99.90
20973;DHT22;10645;52.370;13.314;2022-12-18T01:12:30;-5.60;99.90
20973;DHT22;10645;52.370;13.314;2022-12-18T01:14:56;-5.50;99.90
20973;DHT22;10645;52.370;13.314;2022-12-18T01:17:22;-5.60;99.90
20973;DHT22;10645;52.370;13.314;2022-12-18T01:19:48;-5.60;99.90
20973;DHT22;10645;52.370;13.314;2022-12-18T01:22:14;-5.50;99.90
20973;DHT22;10645;52.370;13.314;2022-12-18T01:24:41;-5.50;99.90
20973;DHT22;10645;52.370;13.314;2022-12-18T01:27:07;-5.50;99.90
20973;DHT22;10645;52.370;13.314;2022-12-18T01:29:33;-5.50;99.90
20973;DHT22;10645;52.370;13.314;2022-12-18T01:31:59;-5.50;99.90
20973;DHT22;10645;52.370;13.314;2022-12-18T01:34:25;-5.50;99.90
20973;DHT22;10645;52.370;13.314;2022-12-18T01:36:51;-5.50;99.90
20973;DHT22;10645;52.370;13.314;2022-12-18T01:39:18;-5.50;99.90
20973;DHT22;10645;52.370;13.314;2022-12-18T01:41:45;-5.50;99.90
20973;DHT22;10645;52.370;13.314;2022-12-18T01:44:59;-5.40;99.90
20973;DHT22;10645;52.370;13.314;2022-12-18T01:50:17;-5.40;99.90
20973;DHT22;10645;52.370;13.314;2022-12-18T01:52:46;-5.40;99.90
20973;DHT22;10645;52.370;13.314;2022-12-18T01:55:15;-5.40;99.90
20973;DHT22;10645;52.370;13.314;2022-12-18T01:57:42;-5.40;99.90
20973;DHT22;10645;52.370;13.314;2022-12-18T02:00:15;-5.40;99.90
20973;DHT22;10645;52.370;13.314;2022-12-18T02:02:43;-5.40;99.90
20973;DHT22;10645;52.370;13.314;2022-12-18T02:05:10;-5.40;99.90
20973;DHT22;10645;52.370;13.314;2022-12-18T02:07:48;-5.40;99.90
20973;DHT22;10645;52.370;13.314;2022-12-18T02:10:24;-5.40;99.90
20973;DHT22;10645;52.370;13.314;2022-12-18T02:13:01;-5.40;99.90
20973;DHT22;10645;52.370;13.314;2022-12-18T02:18:11;-5.40;99.90
20973;DHT22;10645;52.370;13.314;2022-12-18T02:20:45;-5.40;99.90
20973;DHT22;10645;52.370;13.314;2022-12-18T02:26:18;-5.40;99.90
20973;DHT22;10645;52.370;13.314;2022-12-18T02:29:00;-5.40;99.90
20973;DHT22;10645;52.370;13.314;2022-12-18T02:31:35;-5.40;99.90
20973;DHT22;10645;52.370;13.314;2022-12-18T02:34:04;-5.40;99.90
20973;DHT22;10645;52.370;13.314;2022-12-18T02:36:39;-5.40;99.90
20973;DHT22;10645;52.370;13.314;2022-12-18T02:39:09;-5.40;99.90
20973;DHT22;10645;52.370;13.314;2022-12-18T02:41:38;-5.40;99.90
20973;DHT22;10645;52.370;13.314;2022-12-18T02:44:10;-5.50;99.90
20973;DHT22;10645;52.370;13.314;2022-12-18T02:46:41;-5.40;99.90
20973;DHT22;10645;52.370;13.314;2022-12-18T02:49:20;-5.40;99.90
20973;DHT22;10645;52.370;13.314;2022-12-18T02:51:53;-5.50;99.90
20973;DHT22;10645;52.370;13.314;2022-12-18T02:57:16;-5.50;99.90
20973;DHT22;10645;52.370;13.314;2022-12-18T03:00:08;-5.50;99.90
20973;DHT22;10645;52.370;13.314;2022-12-18T03:02:51;-5.50;99.90
20973;DHT22;10645;52.370;13.314;2022-12-18T03:05:23;-5.50;99.90
20973;DHT22;10645;52.370;13.314;2022-12-18T03:08:14;-5.50;99.90
20973;DHT22;10645;52.370;13.314;2022-12-18T03:10:53;-5.50;99.90
20973;DHT22;10645;52.370;13.314;2022-12-18T03:13:44;-5.60;99.90
20973;DHT22;10645;52.370;13.314;2022-12-18T03:16:18;-5.60;99.90
20973;DHT22;10645;52.370;13.314;2022-12-18T03:18:55;-5.60;99.90
20973;DHT22;10645;52.370;13.314;2022-12-18T03:21:29;-5.60;99.90
20973;DHT22;10645;52.370;13.314;2022-12-18T03:23:58;-5.60;99.90
20973;DHT22;10645;52.370;13.314;2022-12-18T03:26:27;-5.60;99.90
20973;DHT22;10645;52.370;13.314;2022-12-18T03:29:07;-5.60;99.90
20973;DHT22;10645;52.370;13.314;2022-12-18T03:31:37;-5.60;99.90
20973;DHT22;10645;52.370;13.314;2022-12-18T03:34:09;-5.60;99.90
20973;DHT22;10645;52.370;13.314;2022-12-18T03:36:43;-5.60;99.90
20973;DHT22;10645;52.370;13.314;2022-12-18T03:39:09;-5.60;99.90
20973;DHT22;10645;52.370;13.314;2022-12-18T03:41:51;-5.50;99.90
20973;DHT22;10645;52.370;13.314;2022-12-18T03:44:53;-5.60;99.90
20973;DHT22;10645;52.370;13.314;2022-12-18T03:47:40;-5.60;99.90
20973;DHT22;10645;52.370;13.314;2022-12-18T03:50:15;-5.60;99.90
20973;DHT22;10645;52.370;13.314;2022-12-18T03:52:51;-5.70;99.90
20973;DHT22;10645;52.370;13.314;2022-12-18T03:55:22;-5.70;99.90
20973;DHT22;10645;52.370;13.314;2022-12-18T03:57:56;-5.70;99.90
20973;DHT22;10645;52.370;13.314;2022-12-18T04:00:25;-5.70;99.90
20973;DHT22;10645;52.370;13.314;2022-12-18T04:03:01;-5.60;99.90
20973;DHT22;10645;52.370;13.314;2022-12-18T04:05:35;-5.70;99.90
20973;DHT22;10645;52.370;13.314;2022-12-18T04:08:03;-5.70;99.90
20973;DHT22;10645;52.370;13.314;2022-12-18T04:10:33;-5.70;99.90
20973;DHT22;10645;52.370;13.314;2022-12-18T04:13:02;-5.70;99.90
20973;DHT22;10645;52.370;13.314;2022-12-18T04:15:29;-5.70;99.90
20973;DHT22;10645;52.370;13.314;2022-12-18T04:17:57;-5.70;99.90
20973;DHT22;10645;52.370;13.314;2022-12-18T04:20:25;-5.70;99.90
20973;DHT22;10645;52.370;13.314;2022-12-18T04:22:51;-5.70;99.90
20973;DHT22;10645;52.370;13.314;2022-12-18T04:25:19;-5.70;99.90
20973;DHT22;10645;52.370;13.314;2022-12-18T04:28:04;-5.70;99.90
20973;DHT22;10645;52.370;13.314;2022-12-18T04:30:31;-5.80;99.90
20973;DHT22;10645;52.370;13.314;2022-12-18T04:32:58;-5.80;99.90
20973;DHT22;10645;52.370;13.314;2022-12-18T04:35:24;-5.80;99.90
20973;DHT22;10645;52.370;13.314;2022-12-18T04:37:51;-5.80;99.90
20973;DHT22;10645;52.370;13.314;2022-12-18T04:40:17;-5.80;99.90
20973;DHT22;10645;52.370;13.314;2022-12-18T04:42:46;-5.90;99.90
20973;DHT22;10645;52.370;13.314;2022-12-18T04:45:12;-5.80;99.90
20973;DHT22;10645;52.370;13.314;2022-12-18T04:47:38;-5.80;99.90
20973;DHT22;10645;52.370;13.314;2022-12-18T04:50:05;-5.80;99.90
20973;DHT22;10645;52.370;13.314;2022-12-18T04:52:31;-5.80;99.90
20973;DHT22;10645;52.370;13.314;2022-12-18T04:54:57;-5.70;99.90
20973;DHT22;10645;52.370;13.314;2022-12-18T04:57:23;-5.70;99.90
20973;DHT22;10645;52.370;13.314;2022-12-18T04:59:49;-5.80;99.90
20973;DHT22;10645;52.370;13.314;2022-12-18T05:02:15;-5.90;99.90
20973;DHT22;10645;52.370;13.314;2022-12-18T05:04:41;-5.80;99.90
20973;DHT22;10645;52.370;13.314;2022-12-18T05:07:07;-5.90;99.90
20973;DHT22;10645;52.370;13.314;2022-12-18T05:09:33;-5.90;99.90
20973;DHT22;10645;52.370;13.314;2022-12-18T05:11:59;-5.90;99.90
20973;DHT22;10645;52.370;13.314;2022-12-18T05:14:25;-5.90;99.90
20973;DHT22;10645;52.370;13.314;2022-12-18T05:16:53;-6.00;99.90
20973;DHT22;10645;52.370;13.314;2022-12-18T05:19:19;-6.00;99.90
20973;DHT22;10645;52.370;13.314;2022-12-18T05:21:45;-6.00;99.90
20973;DHT22;10645;52.370;13.314;2022-12-18T05:24:11;-6.10;99.90
20973;DHT22;10645;52.370;13.314;2022-12-18T05:26:37;-6.10;99.90
20973;DHT22;10645;52.370;13.314;2022-12-18T05:29:03;-6.20;99.90
20973;DHT22;10645;52.370;13.314;2022-12-18T05:31:29;-6.20;99.90
20973;DHT22;10645;52.370;13.314;2022-12-18T05:33:55;-6.20;99.90
20973;DHT22;10645;52.370;13.314;2022-12-18T05:36:21;-6.10;99.90
20973;DHT22;10645;52.370;13.314;2022-12-18T05:38:48;-6.20;99.90
20973;DHT22;10645;52.370;13.314;2022-12-18T05:41:14;-6.10;99.90
20973;DHT22;10645;52.370;13.314;2022-12-18T05:43:41;-6.10;99.90
20973;DHT22;10645;52.370;13.314;2022-12-18T05:46:10;-6.10;99.90
20973;DHT22;10645;52.370;13.314;2022-12-18T05:48:37;-6.10;99.90
20973;DHT22;10645;52.370;13.314;2022-12-18T05:51:05;-6.10;99.90
20973;DHT22;10645;52.370;13.314;2022-12-18T05:53:32;-6.00;99.90
20973;DHT22;10645;52.370;13.314;2022-12-18T05:56:02;-6.00;99.90
20973;DHT22;10645;52.370;13.314;2022-12-18T05:58:29;-6.00;99.90
20973;DHT22;10645;52.370;13.314;2022-12-18T06:00:56;-6.00;99.90
20973;DHT22;10645;52.370;13.314;2022-12-18T06:03:22;-6.00;99.90
20973;DHT22;10645;52.370;13.314;2022-12-18T06:05:48;-6.00;99.90
20973;DHT22;10645;52.370;13.314;2022-12-18T06:08:14;-6.00;99.90
20973;DHT22;10645;52.370;13.314;2022-12-18T06:10:41;-6.00;99.90
20973;DHT22;10645;52.370;13.314;2022-12-18T06:13:07;-6.00;99.90
20973;DHT22;10645;52.370;13.314;2022-12-18T06:15:36;-6.00;99.90
20973;DHT22;10645;52.370;13.314;2022-12-18T06:18:03;-5.90;99.90
20973;DHT22;10645;52.370;13.314;2022-12-18T06:20:29;-5.90;99.90
20973;DHT22;10645;52.370;13.314;2022-12-18T06:22:56;-5.90;99.90
20973;DHT22;10645;52.370;13.314;2022-12-18T06:25:22;-5.90;99.90
20973;DHT22;10645;52.370;13.314;2022-12-18T06:27:48;-5.90;99.90
20973;DHT22;10645;52.370;13.314;2022-12-18T06:30:14;-5.90;99.90
20973;DHT22;10645;52.370;13.314;2022-12-18T06:32:40;-5.90;99.90
20973;DHT22;10645;52.370;13.314;2022-12-18T06:35:07;-5.90;99.90
20973;DHT22;10645;52.370;13.314;2022-12-18T06:37:33;-5.90;99.90
20973;DHT22;10645;52.370;13.314;2022-12-18T06:39:59;-5.80;99.90
20973;DHT22;10645;52.370;13.314;2022-12-18T06:42:26;-5.80;99.90
20973;DHT22;10645;52.370;13.314;2022-12-18T06:44:54;-5.70;99.90
20973;DHT22;10645;52.370;13.314;2022-12-18T06:47:20;-5.70;99.90
20973;DHT22;10645;52.370;13.314;2022-12-18T06:49:46;-5.70;99.90
20973;DHT22;10645;52.370;13.314;2022-12-18T06:52:12;-5.60;99.90
20973;DHT22;10645;52.370;13.314;2022-12-18T06:54:38;-5.60;99.90
20973;DHT22;10645;52.370;13.314;2022-12-18T06:57:04;-5.60;99.90
20973;DHT22;10645;52.370;13.314;2022-12-18T06:59:30;-5.60;99.90
20973;DHT22;10645;52.370;13.314;2022-12-18T07:01:56;-5.60;99.90
20973;DHT22;10645;52.370;13.314;2022-12-18T07:04:26;-5.60;99.90
20973;DHT22;10645;52.370;13.314;2022-12-18T07:06:52;-5.50;99.90
20973;DHT22;10645;52.370;13.314;2022-12-18T07:09:18;-5.50;99.90
20973;DHT22;10645;52.370;13.314;2022-12-18T07:11:44;-5.50;99.90
20973;DHT22;10645;52.370;13.314;2022-12-18T07:14:11;-5.40;99.90
20973;DHT22;10645;52.370;13.314;2022-12-18T07:16:37;-5.40;99.90
20973;DHT22;10645;52.370;13.314;2022-12-18T07:19:03;-5.40;99.90
20973;DHT22;10645;52.370;13.314;2022-12-18T07:21:29;-5.40;99.90
20973;DHT22;10645;52.370;13.314;2022-12-18T07:23:55;-5.30;99.90
20973;DHT22;10645;52.370;13.314;2022-12-18T07:26:22;-5.30;99.90
20973;DHT22;10645;52.370;13.314;2022-12-18T07:28:48;-5.30;99.90
20973;DHT22;10645;52.370;13.314;2022-12-18T07:31:18;-5.40;99.90
20973;DHT22;10645;52.370;13.314;2022-12-18T07:33:45;-5.40;99.90
20973;DHT22;10645;52.370;13.314;2022-12-18T07:36:11;-5.30;99.90
20973;DHT22;10645;52.370;13.314;2022-12-18T07:38:38;-5.30;99.90
20973;DHT22;10645;52.370;13.314;2022-12-18T07:41:07;-5.30;99.90
20973;DHT22;10645;52.370;13.314;2022-12-18T07:43:34;-5.30;99.90
20973;DHT22;10645;52.370;13.314;2022-12-18T07:46:00;-5.30;99.90
20973;DHT22;10645;52.370;13.314;2022-12-18T07:48:27;-5.30;99.90
20973;DHT22;10645;52.370;13.314;2022-12-18T07:50:57;-5.20;99.90
20973;DHT22;10645;52.370;13.314;2022-12-18T07:53:23;-5.20;99.90
20973;DHT22;10645;52.370;13.314;2022-12-18T07:55:54;-5.20;99.90
20973;DHT22;10645;52.370;13.314;2022-12-18T07:58:20;-5.20;99.90
20973;DHT22;10645;52.370;13.314;2022-12-18T08:00:46;-5.10;99.90
20973;DHT22;10645;52.370;13.314;2022-12-18T08:03:12;-5.20;99.90
20973;DHT22;10645;52.370;13.314;2022-12-18T08:05:38;-5.10;99.90
20973;DHT22;10645;52.370;13.314;2022-12-18T08:08:04;-5.20;99.90
20973;DHT22;10645;52.370;13.314;2022-12-18T08:10:31;-5.20;99.90
20973;DHT22;10645;52.370;13.314;2022-12-18T08:12:57;-5.20;99.90
20973;DHT22;10645;52.370;13.314;2022-12-18T08:15:23;-5.10;99.90
20973;DHT22;10645;52.370;13.314;2022-12-18T08:17:49;-5.10;99.90
20973;DHT22;10645;52.370;13.314;2022-12-18T08:20:15;-5.10;99.90
20973;DHT22;10645;52.370;13.314;2022-12-18T08:22:42;-5.10;99.90
20973;DHT22;10645;52.370;13.314;2022-12-18T08:25:08;-5.00;99.90
20973;DHT22;10645;52.370;13.314;2022-12-18T08:27:34;-4.90;99.90
20973;DHT22;10645;52.370;13.314;2022-12-18T08:30:01;-4.90;99.90
20973;DHT22;10645;52.370;13.314;2022-12-18T08:32:27;-4.90;99.90
20973;DHT22;10645;52.370;13.314;2022-12-18T08:34:53;-4.90;99.90
20973;DHT22;10645;52.370;13.314;2022-12-18T08:37:20;-5.00;99.90
20973;DHT22;10645;52.370;13.314;2022-12-18T08:39:46;-4.90;99.90
20973;DHT22;10645;52.370;13.314;2022-12-18T08:42:12;-5.00;99.90
20973;DHT22;10645;52.370;13.314;2022-12-18T08:44:59;-5.00;99.90
20973;DHT22;10645;52.370;13.314;2022-12-18T08:47:25;-4.90;99.90
20973;DHT22;10645;52.370;13.314;2022-12-18T08:49:51;-4.90;99.90
20973;DHT22;10645;52.370;13.314;2022-12-18T08:52:17;-4.90;99.90
20973;DHT22;10645;52.370;13.314;2022-12-18T08:54:44;-4.90;99.90
20973;DHT22;10645;52.370;13.314;2022-12-18T08:57:10;-4.80;99.90
20973;DHT22;10645;52.370;13.314;2022-12-18T08:59:36;-4.80;99.90
20973;DHT22;10645;52.370;13.314;2022-12-18T09:02:02;-4.80;99.90
20973;DHT22;10645;52.370;13.314;2022-12-18T09:04:28;-4.70;99.90
20973;DHT22;10645;52.370;13.314;2022-12-18T09:06:54;-4.70;99.90
20973;DHT22;10645;52.370;13.314;2022-12-18T09:09:21;-4.60;99.90
20973;DHT22;10645;52.370;13.314;2022-12-18T09:11:47;-4.60;99.90
20973;DHT22;10645;52.370;13.314;2022-12-18T09:14:13;-4.60;99.90
20973;DHT22;10645;52.370;13.314;2022-12-18T09:16:39;-4.60;99.90
20973;DHT22;10645;52.370;13.314;2022-12-18T09:19:05;-4.60;99.90
20973;DHT22;10645;52.370;13.314;2022-12-18T09:21:33;-4.50;99.90
20973;DHT22;10645;52.370;13.314;2022-12-18T09:24:00;-4.50;99.90
20973;DHT22;10645;52.370;13.314;2022-12-18T09:26:26;-4.50;99.90
20973;DHT22;10645;52.370;13.314;2022-12-18T09:28:53;-4.40;99.90
20973;DHT22;10645;52.370;13.314;2022-12-18T09:31:21;-4.40;99.90
20973;DHT22;10645;52.370;13.314;2022-12-18T09:33:47;-4.40;99.90
20973;DHT22;10645;52.370;13.314;2022-12-18T09:36:16;-4.40;99.90
20973;DHT22;10645;52.370;13.314;2022-12-18T09:38:42;-4.40;99.90
20973;DHT22;10645;52.370;13.314;2022-12-18T09:44:17;-4.30;99.90
20973;DHT22;10645;52.370;13.314;2022-12-18T09:46:48;-4.30;99.90
20973;DHT22;10645;52.370;13.314;2022-12-18T09:49:19;-4.30;99.90
20973;DHT22;10645;52.370;13.314;2022-12-18T09:51:52;-4.20;99.90
20973;DHT22;10645;52.370;13.314;2022-12-18T09:54:38;-4.20;99.90
20973;DHT22;10645;52.370;13.314;2022-12-18T09:57:14;-4.20;99.90
20973;DHT22;10645;52.370;13.314;2022-12-18T09:59:45;-4.10;99.90
20973;DHT22;10645;52.370;13.314;2022-12-18T10:02:16;-4.10;99.90
20973;DHT22;10645;52.370;13.314;2022-12-18T10:04:43;-4.00;99.90
20973;DHT22;10645;52.370;13.314;2022-12-18T10:07:21;-4.10;99.90
20973;DHT22;10645;52.370;13.314;2022-12-18T10:10:02;-4.00;99.90
20973;DHT22;10645;52.370;13.314;2022-12-18T10:15:35;-4.00;99.90
20973;DHT22;10645;52.370;13.314;2022-12-18T10:18:17;-4.10;99.90
20973;DHT22;10645;52.370;13.314;2022-12-18T10:20:52;-4.10;99.90
20973;DHT22;10645;52.370;13.314;2022-12-18T10:23:41;-4.00;99.90
20973;DHT22;10645;52.370;13.314;2022-12-18T10:26:11;-4.00;99.90
20973;DHT22;10645;52.370;13.314;2022-12-18T10:28:40;-3.90;99.90
20973;DHT22;10645;52.370;13.314;2022-12-18T10:31:12;-3.80;99.90
20973;DHT22;10645;52.370;13.314;2022-12-18T10:33:40;-4.00;99.90
20973;DHT22;10645;52.370;13.314;2022-12-18T10:36:07;-3.90;99.90
20973;DHT22;10645;52.370;13.314;2022-12-18T10:38:33;-3.80;99.90
20973;DHT22;10645;52.370;13.314;2022-12-18T10:41:05;-3.70;99.90
20973;DHT22;10645;52.370;13.314;2022-12-18T10:43:34;-3.70;99.90
20973;DHT22;10645;52.370;13.314;2022-12-18T10:48:51;-3.70;99.90
20973;DHT22;10645;52.370;13.314;2022-12-18T10:51:29;-3.60;99.90
20973;DHT22;10645;52.370;13.314;2022-12-18T10:54:01;-3.50;99.90
20973;DHT22;10645;52.370;13.314;2022-12-18T10:56:30;-3.40;99.90
20973;DHT22;10645;52.370;13.314;2022-12-18T10:59:06;-3.40;99.90
20973;DHT22;10645;52.370;13.314;2022-12-18T11:01:53;-3.40;99.90
20973;DHT22;10645;52.370;13.314;2022-12-18T11:04:25;-3.40;99.90
20973;DHT22;10645;52.370;13.314;2022-12-18T11:07:00;-3.40;99.90
20973;DHT22;10645;52.370;13.314;2022-12-18T11:09:29;-3.30;99.90
20973;DHT22;10645;52.370;13.314;2022-12-18T11:11:58;-3.30;99.90
20973;DHT22;10645;52.370;13.314;2022-12-18T11:14:43;-3.30;99.90
20973;DHT22;10645;52.370;13.314;2022-12-18T11:17:32;-3.20;99.90
20973;DHT22;10645;52.370;13.314;2022-12-18T11:19:59;-3.20;99.90
20973;DHT22;10645;52.370;13.314;2022-12-18T11:22:32;-3.20;99.90
20973;DHT22;10645;52.370;13.314;2022-12-18T11:25:17;-3.20;99.90
20973;DHT22;10645;52.370;13.314;2022-12-18T11:27:52;-3.20;99.90
20973;DHT22;10645;52.370;13.314;2022-12-18T11:30:35;-3.20;99.90
20973;DHT22;10645;52.370;13.314;2022-12-18T11:33:21;-3.20;99.90
20973;DHT22;10645;52.370;13.314;2022-12-18T11:35:55;-3.30;99.90
20973;DHT22;10645;52.370;13.314;2022-12-18T11:41:00;-3.30;99.90
20973;DHT22;10645;52.370;13.314;2022-12-18T11:43:39;-3.20;99.90
20973;DHT22;10645;52.370;13.314;2022-12-18T11:46:12;-3.30;99.90
20973;DHT22;10645;52.370;13.314;2022-12-18T11:48:58;-3.30;99.90
20973;DHT22;10645;52.370;13.314;2022-12-18T11:51:43;-3.30;99.90
20973;DHT22;10645;52.370;13.314;2022-12-18T11:54:14;-3.30;99.90
20973;DHT22;10645;52.370;13.314;2022-12-18T11:56:57;-3.30;99.90
20973;DHT22;10645;52.370;13.314;2022-12-18T11:59:56;-3.30;99.90
20973;DHT22;10645;52.370;13.314;2022-12-18T12:06:01;-3.30;99.90
20973;DHT22;10645;52.370;13.314;2022-12-18T12:09:00;-3.20;99.90
20973;DHT22;10645;52.370;13.314;2022-12-18T12:11:54;-3.20;99.90
20973;DHT22;10645;52.370;13.314;2022-12-18T12:14:46;-3.20;99.90
20973;DHT22;10645;52.370;13.314;2022-12-18T12:17:46;-3.10;99.90
20973;DHT22;10645;52.370;13.314;2022-12-18T12:21:12;-3.10;99.90
20973;DHT22;10645;52.370;13.314;2022-12-18T12:23:35;-3.10;99.90
20973;DHT22;10645;52.370;13.314;2022-12-18T12:26:07;-3.00;99.90
20973;DHT22;10645;52.370;13.314;2022-12-18T12:29:00;-3.00;99.90
20973;DHT22;10645;52.370;13.314;2022-12-18T12:32:10;-3.00;99.90
20973;DHT22;10645;52.370;13.314;2022-12-18T12:37:49;-3.00;99.90
20973;DHT22;10645;52.370;13.314;2022-12-18T12:40:19;-2.90;99.90
20973;DHT22;10645;52.370;13.314;2022-12-18T12:43:00;-2.90;99.90
20973;DHT22;10645;52.370;13.314;2022-12-18T12:45:51;-2.90;99.90
20973;DHT22;10645;52.370;13.314;2022-12-18T12:50:50;-2.80;99.90
20973;DHT22;10645;52.370;13.314;2022-12-18T12:53:25;-2.70;99.90
20973;DHT22;10645;52.370;13.314;2022-12-18T12:55:52;-2.60;99.90
20973;DHT22;10645;52.370;13.314;2022-12-18T12:58:34;-2.70;99.90
20973;DHT22;10645;52.370;13.314;2022-12-18T13:01:23;-2.70;99.90
20973;DHT22;10645;52.370;13.314;2022-12-18T13:04:02;-2.70;99.90
20973;DHT22;10645;52.370;13.314;2022-12-18T13:06:57;-2.80;99.90
20973;DHT22;10645;52.370;13.314;2022-12-18T13:09:24;-2.80;99.90
20973;DHT22;10645;52.370;13.314;2022-12-18T13:11:50;-2.90;99.90
20973;DHT22;10645;52.370;13.314;2022-12-18T13:14:37;-3.00;99.90
20973;DHT22;10645;52.370;13.314;2022-12-18T13:20:03;-3.00;99.90
20973;DHT22;10645;52.370;13.314;2022-12-18T13:22:49;-3.00;99.90
20973;DHT22;10645;52.370;13.314;2022-12-18T13:25:36;-3.00;99.90
20973;DHT22;10645;52.370;13.314;2022-12-18T13:28:07;-3.10;99.90
20973;DHT22;10645;52.370;13.314;2022-12-18T13:35:52;-3.00;99.90
20973;DHT22;10645;52.370;13.314;2022-12-18T13:41:01;-3.10;99.90
20973;DHT22;10645;52.370;13.314;2022-12-18T13:46:30;-3.20;99.90
20973;DHT22;10645;52.370;13.314;2022-12-18T13:49:23;-3.10;99.90
20973;DHT22;10645;52.370;13.314;2022-12-18T13:51:52;-3.20;99.90
20973;DHT22;10645;52.370;13.314;2022-12-18T13:57:02;-3.20;99.90
20973;DHT22;10645;52.370;13.314;2022-12-18T13:59:37;-3.20;99.90
20973;DHT22;10645;52.370;13.314;2022-12-18T14:02:18;-3.30;99.90
20973;DHT22;10645;52.370;13.314;2022-12-18T14:04:47;-3.30;99.90
20973;DHT22;10645;52.370;13.314;2022-12-18T14:07:15;-3.30;99.90
20973;DHT22;10645;52.370;13.314;2022-12-18T14:10:02;-3.30;99.90
20973;DHT22;10645;52.370;13.314;2022-12-18T14:12:33;-3.40;99.90
20973;DHT22;10645;52.370;13.314;2022-12-18T14:17:57;-3.40;99.90
20973;DHT22;10645;52.370;13.314;2022-12-18T14:20:25;-3.40;99.90
20973;DHT22;10645;52.370;13.314;2022-12-18T14:22:51;-3.40;99.90
20973;DHT22;10645;52.370;13.314;2022-12-18T14:25:24;-3.40;99.90
20973;DHT22;10645;52.370;13.314;2022-12-18T14:28:02;-3.40;99.90
20973;DHT22;10645;52.370;13.314;2022-12-18T14:30:39;-3.40;99.90
20973;DHT22;10645;52.370;13.314;2022-12-18T14:33:09;-3.50;99.90
20973;DHT22;10645;52.370;13.314;2022-12-18T14:35:39;-3.50;99.90
20973;DHT22;10645;52.370;13.314;2022-12-18T14:40:53;-3.60;99.90
20973;DHT22;10645;52.370;13.314;2022-12-18T14:43:19;-3.60;99.90
20973;DHT22;10645;52.370;13.314;2022-12-18T14:45:46;-3.60;99.90
20973;DHT22;10645;52.370;13.314;2022-12-18T14:48:21;-3.60;99.90
20973;DHT22;10645;52.370;13.314;2022-12-18T14:50:56;-3.60;99.90
20973;DHT22;10645;52.370;13.314;2022-12-18T14:56:31;-3.60;99.90
20973;DHT22;10645;52.370;13.314;2022-12-18T14:58:58;-3.70;99.90
20973;DHT22;10645;52.370;13.314;2022-12-18T15:01:30;-3.70;99.90
20973;DHT22;10645;52.370;13.314;2022-12-18T15:03:58;-3.70;99.90
20973;DHT22;10645;52.370;13.314;2022-12-18T15:06:37;-3.70;99.90
20973;DHT22;10645;52.370;13.314;2022-12-18T15:09:22;-3.70;99.90
20973;DHT22;10645;52.370;13.314;2022-12-18T15:11:49;-3.70;99.90
20973;DHT22;10645;52.370;13.314;2022-12-18T15:14:38;-3.70;99.90
20973;DHT22;10645;52.370;13.314;2022-12-18T15:17:19;-3.70;99.90
20973;DHT22;10645;52.370;13.314;2022-12-18T15:19:48;-3.70;99.90
20973;DHT22;10645;52.370;13.314;2022-12-18T15:22:28;-3.70;99.90
20973;DHT22;10645;52.370;13.314;2022-12-18T15:24:56;-3.70;99.90
20973;DHT22;10645;52.370;13.314;2022-12-18T15:27:30;-3.70;99.90
20973;DHT22;10645;52.370;13.314;2022-12-18T15:30:01;-3.70;99.90
20973;DHT22;10645;52.370;13.314;2022-12-18T15:32:27;-3.70;99.90
20973;DHT22;10645;52.370;13.314;2022-12-18T15:35:11;-3.70;99.90
20973;DHT22;10645;52.370;13.314;2022-12-18T15:37:38;-3.70;99.90
20973;DHT22;10645;52.370;13.314;2022-12-18T15:40:05;-3.80;99.90
20973;DHT22;10645;52.370;13.314;2022-12-18T15:42:31;-3.80;99.90
20973;DHT22;10645;52.370;13.314;2022-12-18T15:45:16;-3.90;99.90
20973;DHT22;10645;52.370;13.314;2022-12-18T15:47:42;-4.00;99.90
20973;DHT22;10645;52.370;13.314;2022-12-18T15:50:08;-3.90;99.90
20973;DHT22;10645;52.370;13.314;2022-12-18T15:52:43;-4.00;99.90
20973;DHT22;10645;52.370;13.314;2022-12-18T15:55:23;-4.00;99.90
20973;DHT22;10645;52.370;13.314;2022-12-18T15:58:10;-4.00;99.90
20973;DHT22;10645;52.370;13.314;2022-12-18T16:00:38;-4.00;99.90
20973;DHT22;10645;52.370;13.314;2022-12-18T16:03:05;-4.00;99.90
20973;DHT22;10645;52.370;13.314;2022-12-18T16:05:32;-4.00;99.90
20973;DHT22;10645;52.370;13.314;2022-12-18T16:07:58;-4.00;99.90
20973;DHT22;10645;52.370;13.314;2022-12-18T16:10:25;-4.00;99.90
20973;DHT22;10645;52.370;13.314;2022-12-18T16:12:52;-4.00;99.90
20973;DHT22;10645;52.370;13.314;2022-12-18T16:15:18;-4.00;99.90
20973;DHT22;10645;52.370;13.314;2022-12-18T16:17:45;-4.00;99.90
20973;DHT22;10645;52.370;13.314;2022-12-18T16:20:16;-4.00;99.90
20973;DHT22;10645;52.370;13.314;2022-12-18T16:22:43;-4.00;99.90
20973;DHT22;10645;52.370;13.314;2022-12-18T16:25:21;-4.00;99.90
20973;DHT22;10645;52.370;13.314;2022-12-18T16:27:48;-3.90;99.90
20973;DHT22;10645;52.370;13.314;2022-12-18T16:30:20;-3.90;99.90
20973;DHT22;10645;52.370;13.314;2022-12-18T16:32:47;-4.00;99.90
20973;DHT22;10645;52.370;13.314;2022-12-18T16:35:14;-4.00;99.90
20973;DHT22;10645;52.370;13.314;2022-12-18T16:37:42;-4.00;99.90